sensor_id;sensor_type;location;lat;lon;timestamp;pressure;altitude;pressure_sealevel;temperature;humidity
47636;BME280;33364;50.766;15.338;2022-08-30T00:01:55;95360.75;;;12.27;80.78
47636;BME280;33364;50.766;15.338;2022-08-30T00:04:20;95364.41;;;12.25;82.71
47636;BME280;33364;50.766;15.338;2022-08-30T00:06:46;95368.81;;;12.13;81.48
47636;BME280;33364;50.766;15.338;2022-08-30T00:09:11;95364.00;;;12.08;82.26
47636;BME280;33364;50.766;15.338;2022-08-30T00:11:37;95371.31;;;12.03;82.55
47636;BME280;33364;50.766;15.338;2022-08-30T00:14:03;95367.09;;;11.91;82.32
47636;BME280;33364;50.766;15.338;2022-08-30T00:16:28;95366.50;;;11.87;82.73
47636;BME280;33364;50.766;15.338;2022-08-30T00:18:54;95370.28;;;11.83;83.54
47636;BME280;33364;50.766;15.338;2022-08-30T00:21:21;95368.88;;;11.90;83.98
47636;BME280;33364;50.766;15.338;2022-08-30T00:23:46;95372.78;;;11.85;82.33
47636;BME280;33364;50.766;15.338;2022-08-30T00:26:12;95364.16;;;11.73;82.91
47636;BME280;33364;50.766;15.338;2022-08-30T00:28:38;95358.50;;;11.68;83.19
47636;BME280;33364;50.766;15.338;2022-08-30T00:31:04;95365.13;;;11.61;83.34
47636;BME280;33364;50.766;15.338;2022-08-30T00:33:30;95367.94;;;11.58;84.18
47636;BME280;33364;50.766;15.338;2022-08-30T00:35:55;95366.88;;;11.83;85.23
47636;BME280;33364;50.766;15.338;2022-08-30T00:38:22;95366.16;;;11.92;81.89
47636;BME280;33364;50.766;15.338;2022-08-30T00:40:48;95364.38;;;11.92;81.59
47636;BME280;33364;50.766;15.338;2022-08-30T00:43:23;95358.47;;;11.79;81.63
47636;BME280;33364;50.766;15.338;2022-08-30T00:45:50;95356.38;;;11.84;83.31
47636;BME280;33364;50.766;15.338;2022-08-30T00:48:16;95354.25;;;11.89;82.14
47636;BME280;33364;50.766;15.338;2022-08-30T00:50:47;95358.50;;;11.90;81.53
47636;BME280;33364;50.766;15.338;2022-08-30T00:53:22;95352.22;;;11.93;81.42
47636;BME280;33364;50.766;15.338;2022-08-30T00:55:49;95356.13;;;11.76;81.58
47636;BME280;33364;50.766;15.338;2022-08-30T00:58:22;95357.91;;;11.76;83.47
47636;BME280;33364;50.766;15.338;2022-08-30T01:00:51;95358.25;;;11.93;82.10
47636;BME280;33364;50.766;15.338;2022-08-30T01:03:18;95357.78;;;11.88;82.01
47636;BME280;33364;50.766;15.338;2022-08-30T01:05:45;95358.38;;;11.70;82.40
47636;BME280;33364;50.766;15.338;2022-08-30T01:08:12;95358.25;;;11.71;81.74
47636;BME280;33364;50.766;15.338;2022-08-30T01:10:40;95356.38;;;11.73;82.10
47636;BME280;33364;50.766;15.338;2022-08-30T01:13:08;95356.84;;;11.78;82.03
47636;BME280;33364;50.766;15.338;2022-08-30T01:15:34;95358.97;;;11.84;81.13
47636;BME280;33364;50.766;15.338;2022-08-30T01:18:02;95361.22;;;11.66;81.34
47636;BME280;33364;50.766;15.338;2022-08-30T01:20:36;95361.56;;;11.62;83.25
47636;BME280;33364;50.766;15.338;2022-08-30T01:23:08;95364.75;;;11.65;82.81
47636;BME280;33364;50.766;15.338;2022-08-30T01:25:35;95369.09;;;11.76;83.39
47636;BME280;33364;50.766;15.338;2022-08-30T01:28:08;95365.09;;;11.72;82.85
47636;BME280;33364;50.766;15.338;2022-08-30T01:30:35;95357.69;;;11.90;82.42
47636;BME280;33364;50.766;15.338;2022-08-30T01:33:03;95364.97;;;11.74;81.51
47636;BME280;33364;50.766;15.338;2022-08-30T01:35:43;95369.34;;;11.62;82.74
47636;BME280;33364;50.766;15.338;2022-08-30T01:38:10;95375.97;;;11.55;82.96
47636;BME280;33364;50.766;15.338;2022-08-30T01:40:36;95377.50;;;11.46;83.42
47636;BME280;33364;50.766;15.338;2022-08-30T01:43:01;95378.09;;;11.50;83.39
47636;BME280;33364;50.766;15.338;2022-08-30T01:45:27;95373.72;;;11.50;82.76
47636;BME280;33364;50.766;15.338;2022-08-30T01:47:54;95372.28;;;11.57;83.32
47636;BME280;33364;50.766;15.338;2022-08-30T01:50:19;95374.28;;;11.54;83.08
47636;BME280;33364;50.766;15.338;2022-08-30T01:52:45;95380.19;;;11.67;83.63
47636;BME280;33364;50.766;15.338;2022-08-30T01:55:11;95374.03;;;11.79;82.45
47636;BME280;33364;50.766;15.338;2022-08-30T01:57:36;95383.97;;;11.85;81.25
47636;BME280;33364;50.766;15.338;2022-08-30T02:00:07;95383.25;;;11.61;82.11
47636;BME280;33364;50.766;15.338;2022-08-30T02:02:33;95381.84;;;11.46;81.90
47636;BME280;33364;50.766;15.338;2022-08-30T02:04:58;95377.38;;;11.48;82.67
47636;BME280;33364;50.766;15.338;2022-08-30T02:07:25;95380.69;;;11.50;82.49
47636;BME280;33364;50.766;15.338;2022-08-30T02:09:52;95375.97;;;11.55;82.27
47636;BME280;33364;50.766;15.338;2022-08-30T02:12:17;95372.88;;;11.38;82.53
47636;BME280;33364;50.766;15.338;2022-08-30T02:14:43;95381.13;;;11.21;83.83
47636;BME280;33364;50.766;15.338;2022-08-30T02:17:11;95377.72;;;11.09;84.64
47636;BME280;33364;50.766;15.338;2022-08-30T02:19:37;95372.88;;;11.05;85.01
47636;BME280;33364;50.766;15.338;2022-08-30T02:22:04;95372.88;;;11.05;85.01
47636;BME280;33364;50.766;15.338;2022-08-30T02:24:29;95368.75;;;11.13;84.95
47636;BME280;33364;50.766;15.338;2022-08-30T02:26:55;95367.44;;;11.19;84.75
47636;BME280;33364;50.766;15.338;2022-08-30T02:29:22;95364.50;;;11.12;84.75
47636;BME280;33364;50.766;15.338;2022-08-30T02:31:48;95370.03;;;11.08;85.52
47636;BME280;33364;50.766;15.338;2022-08-30T02:34:14;95361.69;;;11.15;85.09
47636;BME280;33364;50.766;15.338;2022-08-30T02:36:39;95357.94;;;11.20;84.58
47636;BME280;33364;50.766;15.338;2022-08-30T02:39:07;95365.81;;;11.29;84.82
47636;BME280;33364;50.766;15.338;2022-08-30T02:41:33;95374.66;;;11.38;83.36
47636;BME280;33364;50.766;15.338;2022-08-30T02:43:59;95363.94;;;11.31;82.88
47636;BME280;33364;50.766;15.338;2022-08-30T02:46:26;95368.16;;;11.44;83.76
47636;BME280;33364;50.766;15.338;2022-08-30T02:48:52;95365.69;;;11.53;82.49
47636;BME280;33364;50.766;15.338;2022-08-30T02:51:18;95369.13;;;11.43;81.61
47636;BME280;33364;50.766;15.338;2022-08-30T02:53:44;95364.28;;;11.49;83.43
47636;BME280;33364;50.766;15.338;2022-08-30T02:56:12;95368.06;;;11.34;83.42
47636;BME280;33364;50.766;15.338;2022-08-30T02:58:38;95367.09;;;11.24;83.09
47636;BME280;33364;50.766;15.338;2022-08-30T03:01:07;95364.25;;;11.04;83.87
47636;BME280;33364;50.766;15.338;2022-08-30T03:03:33;95361.09;;;11.01;85.78
47636;BME280;33364;50.766;15.338;2022-08-30T03:05:59;95366.63;;;11.07;84.74
47636;BME280;33364;50.766;15.338;2022-08-30T03:08:24;95363.22;;;11.07;83.92
47636;BME280;33364;50.766;15.338;2022-08-30T03:10:50;95367.31;;;10.98;84.39
47636;BME280;33364;50.766;15.338;2022-08-30T03:13:16;95368.03;;;11.00;83.79
47636;BME280;33364;50.766;15.338;2022-08-30T03:15:41;95367.44;;;11.08;84.35
47636;BME280;33364;50.766;15.338;2022-08-30T03:18:07;95366.50;;;10.98;83.84
47636;BME280;33364;50.766;15.338;2022-08-30T03:20:33;95366.63;;;10.96;84.33
47636;BME280;33364;50.766;15.338;2022-08-30T03:23:01;95360.94;;;10.80;84.42
47636;BME280;33364;50.766;15.338;2022-08-30T03:25:27;95357.13;;;10.73;85.48
47636;BME280;33364;50.766;15.338;2022-08-30T03:27:53;95354.56;;;10.73;86.02
47636;BME280;33364;50.766;15.338;2022-08-30T03:30:19;95357.00;;;10.74;86.62
47636;BME280;33364;50.766;15.338;2022-08-30T03:32:45;95352.56;;;10.76;86.23
47636;BME280;33364;50.766;15.338;2022-08-30T03:35:12;95359.03;;;10.71;86.16
47636;BME280;33364;50.766;15.338;2022-08-30T03:37:38;95357.25;;;10.71;85.55
47636;BME280;33364;50.766;15.338;2022-08-30T03:40:05;95360.41;;;10.63;85.31
47636;BME280;33364;50.766;15.338;2022-08-30T03:42:35;95361.47;;;10.61;86.36
47636;BME280;33364;50.766;15.338;2022-08-30T03:45:01;95365.91;;;10.59;85.98
47636;BME280;33364;50.766;15.338;2022-08-30T03:47:28;95363.56;;;10.56;86.54
47636;BME280;33364;50.766;15.338;2022-08-30T03:49:54;95368.88;;;10.54;86.69
47636;BME280;33364;50.766;15.338;2022-08-30T03:52:20;95369.44;;;10.58;87.19
47636;BME280;33364;50.766;15.338;2022-08-30T03:54:45;95365.34;;;10.55;87.14
47636;BME280;33364;50.766;15.338;2022-08-30T03:57:11;95367.09;;;10.55;88.07
47636;BME280;33364;50.766;15.338;2022-08-30T03:59:37;95378.53;;;10.63;88.10
47636;BME280;33364;50.766;15.338;2022-08-30T04:02:03;95384.53;;;10.64;86.76
47636;BME280;33364;50.766;15.338;2022-08-30T04:04:30;95383.16;;;10.71;86.36
47636;BME280;33364;50.766;15.338;2022-08-30T04:06:55;95391.25;;;10.67;87.06
47636;BME280;33364;50.766;15.338;2022-08-30T04:09:21;95384.03;;;10.59;86.97
47636;BME280;33364;50.766;15.338;2022-08-30T04:11:47;95383.56;;;10.54;87.13
47636;BME280;33364;50.766;15.338;2022-08-30T04:14:13;95382.31;;;10.59;88.29
47636;BME280;33364;50.766;15.338;2022-08-30T04:16:39;95378.44;;;10.65;87.52
47636;BME280;33364;50.766;15.338;2022-08-30T04:19:04;95385.81;;;10.58;87.22
47636;BME280;33364;50.766;15.338;2022-08-30T04:21:30;95376.72;;;10.53;87.20
47636;BME280;33364;50.766;15.338;2022-08-30T04:23:56;95383.78;;;10.51;87.14
47636;BME280;33364;50.766;15.338;2022-08-30T04:26:22;95379.31;;;10.53;86.98
47636;BME280;33364;50.766;15.338;2022-08-30T04:28:47;95378.84;;;10.59;86.72
47636;BME280;33364;50.766;15.338;2022-08-30T04:31:15;95380.91;;;10.67;86.20
47636;BME280;33364;50.766;15.338;2022-08-30T04:33:42;95389.19;;;10.83;86.86
47636;BME280;33364;50.766;15.338;2022-08-30T04:36:08;95384.13;;;10.93;85.59
47636;BME280;33364;50.766;15.338;2022-08-30T04:38:36;95382.97;;;10.97;85.70
47636;BME280;33364;50.766;15.338;2022-08-30T04:41:08;95387.13;;;11.10;84.10
47636;BME280;33364;50.766;15.338;2022-08-30T04:43:34;95382.78;;;11.22;84.67
47636;BME280;33364;50.766;15.338;2022-08-30T04:46:04;95388.22;;;11.30;83.70
47636;BME280;33364;50.766;15.338;2022-08-30T04:48:30;95395.25;;;11.28;83.44
47636;BME280;33364;50.766;15.338;2022-08-30T04:50:56;95385.63;;;11.30;83.71
47636;BME280;33364;50.766;15.338;2022-08-30T04:53:21;95396.81;;;11.31;84.24
47636;BME280;33364;50.766;15.338;2022-08-30T04:55:48;95401.25;;;11.18;83.67
47636;BME280;33364;50.766;15.338;2022-08-30T04:58:14;95399.34;;;11.08;84.44
47636;BME280;33364;50.766;15.338;2022-08-30T05:00:42;95401.84;;;11.10;83.67
47636;BME280;33364;50.766;15.338;2022-08-30T05:03:08;95406.56;;;11.05;83.69
47636;BME280;33364;50.766;15.338;2022-08-30T05:05:33;95407.38;;;11.05;84.35
47636;BME280;33364;50.766;15.338;2022-08-30T05:08:14;95406.44;;;11.06;83.97
47636;BME280;33364;50.766;15.338;2022-08-30T05:10:42;95401.59;;;11.02;84.32
47636;BME280;33364;50.766;15.338;2022-08-30T05:13:09;95403.16;;;11.15;84.45
47636;BME280;33364;50.766;15.338;2022-08-30T05:15:35;95402.56;;;11.23;84.57
47636;BME280;33364;50.766;15.338;2022-08-30T05:18:03;95398.06;;;11.14;83.94
47636;BME280;33364;50.766;15.338;2022-08-30T05:20:28;95398.78;;;11.05;84.62
47636;BME280;33364;50.766;15.338;2022-08-30T05:22:54;95395.47;;;11.03;86.25
47636;BME280;33364;50.766;15.338;2022-08-30T05:25:23;95399.00;;;11.02;85.15
47636;BME280;33364;50.766;15.338;2022-08-30T05:27:49;95397.69;;;10.96;85.25
47636;BME280;33364;50.766;15.338;2022-08-30T05:30:16;95402.53;;;11.01;85.53
47636;BME280;33364;50.766;15.338;2022-08-30T05:32:42;95401.09;;;10.97;86.29
47636;BME280;33364;50.766;15.338;2022-08-30T05:35:10;95401.25;;;11.06;85.55
47636;BME280;33364;50.766;15.338;2022-08-30T05:37:36;95399.88;;;11.92;97.43
47636;BME280;33364;50.766;15.338;2022-08-30T05:40:04;95401.59;;;13.31;96.99
47636;BME280;33364;50.766;15.338;2022-08-30T05:42:30;95405.97;;;14.02;90.54
47636;BME280;33364;50.766;15.338;2022-08-30T05:44:56;95413.63;;;14.72;85.98
47636;BME280;33364;50.766;15.338;2022-08-30T05:47:21;95407.41;;;15.32;84.31
47636;BME280;33364;50.766;15.338;2022-08-30T05:49:47;95407.44;;;15.96;80.67
47636;BME280;33364;50.766;15.338;2022-08-30T05:52:13;95413.16;;;16.37;77.01
47636;BME280;33364;50.766;15.338;2022-08-30T05:54:51;95411.81;;;16.33;72.46
47636;BME280;33364;50.766;15.338;2022-08-30T05:57:17;95402.50;;;15.66;75.82
47636;BME280;33364;50.766;15.338;2022-08-30T05:59:43;95399.53;;;15.88;79.03
47636;BME280;33364;50.766;15.338;2022-08-30T06:02:09;95402.66;;;16.47;76.95
47636;BME280;33364;50.766;15.338;2022-08-30T06:04:34;95407.09;;;16.82;75.61
47636;BME280;33364;50.766;15.338;2022-08-30T06:07:01;95409.38;;;17.03;74.00
47636;BME280;33364;50.766;15.338;2022-08-30T06:09:28;95400.72;;;16.85;72.08
47636;BME280;33364;50.766;15.338;2022-08-30T06:11:54;95401.72;;;16.83;72.79
47636;BME280;33364;50.766;15.338;2022-08-30T06:14:20;95402.53;;;16.84;72.91
47636;BME280;33364;50.766;15.338;2022-08-30T06:16:45;95402.88;;;17.07;73.22
47636;BME280;33364;50.766;15.338;2022-08-30T06:19:12;95401.66;;;17.19;72.54
47636;BME280;33364;50.766;15.338;2022-08-30T06:21:38;95402.66;;;17.00;70.52
47636;BME280;33364;50.766;15.338;2022-08-30T06:24:07;95399.38;;;16.98;71.45
47636;BME280;33364;50.766;15.338;2022-08-30T06:26:40;95398.53;;;17.16;73.18
47636;BME280;33364;50.766;15.338;2022-08-30T06:29:06;95402.88;;;17.07;70.63
47636;BME280;33364;50.766;15.338;2022-08-30T06:31:32;95399.94;;;17.10;73.44
47636;BME280;33364;50.766;15.338;2022-08-30T06:33:58;95396.88;;;17.15;72.45
47636;BME280;33364;50.766;15.338;2022-08-30T06:36:24;95387.59;;;17.20;72.24
47636;BME280;33364;50.766;15.338;2022-08-30T06:38:52;95385.50;;;17.24;72.19
47636;BME280;33364;50.766;15.338;2022-08-30T06:41:21;95386.50;;;17.23;71.68
47636;BME280;33364;50.766;15.338;2022-08-30T06:43:47;95392.91;;;17.28;73.49
47636;BME280;33364;50.766;15.338;2022-08-30T06:46:17;95391.63;;;17.32;73.24
47636;BME280;33364;50.766;15.338;2022-08-30T06:48:43;95393.19;;;17.25;73.72
47636;BME280;33364;50.766;15.338;2022-08-30T06:51:09;95392.38;;;17.25;74.40
47636;BME280;33364;50.766;15.338;2022-08-30T06:53:34;95395.81;;;17.25;74.46
47636;BME280;33364;50.766;15.338;2022-08-30T06:56:10;95399.47;;;17.32;74.78
47636;BME280;33364;50.766;15.338;2022-08-30T06:58:39;95397.50;;;17.34;74.40
47636;BME280;33364;50.766;15.338;2022-08-30T07:01:06;95400.94;;;17.35;74.09
47636;BME280;33364;50.766;15.338;2022-08-30T07:03:33;95397.88;;;17.40;73.41
47636;BME280;33364;50.766;15.338;2022-08-30T07:05:59;95394.84;;;17.52;75.39
47636;BME280;33364;50.766;15.338;2022-08-30T07:08:24;95397.81;;;17.57;75.03
47636;BME280;33364;50.766;15.338;2022-08-30T07:10:50;95399.72;;;17.73;74.23
47636;BME280;33364;50.766;15.338;2022-08-30T07:13:16;95395.38;;;17.90;74.98
47636;BME280;33364;50.766;15.338;2022-08-30T07:15:44;95400.19;;;18.03;74.43
47636;BME280;33364;50.766;15.338;2022-08-30T07:18:11;95399.75;;;18.16;73.96
47636;BME280;33364;50.766;15.338;2022-08-30T07:20:55;95400.28;;;18.35;71.58
47636;BME280;33364;50.766;15.338;2022-08-30T07:23:21;95409.03;;;18.60;73.24
47636;BME280;33364;50.766;15.338;2022-08-30T07:25:47;95408.28;;;18.84;69.47
47636;BME280;33364;50.766;15.338;2022-08-30T07:28:14;95407.78;;;19.05;69.11
47636;BME280;33364;50.766;15.338;2022-08-30T07:30:40;95408.94;;;19.19;69.20
47636;BME280;33364;50.766;15.338;2022-08-30T07:33:06;95413.03;;;19.38;67.24
47636;BME280;33364;50.766;15.338;2022-08-30T07:35:32;95418.94;;;19.64;65.25
47636;BME280;33364;50.766;15.338;2022-08-30T07:37:58;95405.78;;;19.64;61.25
47636;BME280;33364;50.766;15.338;2022-08-30T07:40:24;95405.41;;;19.84;61.01
47636;BME280;33364;50.766;15.338;2022-08-30T07:42:50;95411.88;;;20.12;59.51
47636;BME280;33364;50.766;15.338;2022-08-30T07:45:16;95405.38;;;20.31;59.85
47636;BME280;33364;50.766;15.338;2022-08-30T07:47:43;95410.63;;;20.31;60.08
47636;BME280;33364;50.766;15.338;2022-08-30T07:50:09;95409.13;;;19.98;57.50
47636;BME280;33364;50.766;15.338;2022-08-30T07:52:35;95410.44;;;20.02;59.23
47636;BME280;33364;50.766;15.338;2022-08-30T07:55:00;95411.16;;;20.27;59.81
47636;BME280;33364;50.766;15.338;2022-08-30T07:57:28;95419.59;;;20.53;60.21
47636;BME280;33364;50.766;15.338;2022-08-30T07:59:57;95415.19;;;20.77;59.26
47636;BME280;33364;50.766;15.338;2022-08-30T08:02:23;95409.69;;;20.86;53.79
47636;BME280;33364;50.766;15.338;2022-08-30T08:04:49;95410.47;;;20.95;54.49
47636;BME280;33364;50.766;15.338;2022-08-30T08:07:14;95411.25;;;21.18;51.77
47636;BME280;33364;50.766;15.338;2022-08-30T08:09:40;95409.59;;;21.17;51.94
47636;BME280;33364;50.766;15.338;2022-08-30T08:12:06;95412.38;;;21.62;53.56
47636;BME280;33364;50.766;15.338;2022-08-30T08:14:32;95416.31;;;22.10;50.14
47636;BME280;33364;50.766;15.338;2022-08-30T08:16:58;95407.41;;;22.26;49.06
47636;BME280;33364;50.766;15.338;2022-08-30T08:19:24;95407.13;;;22.36;49.95
47636;BME280;33364;50.766;15.338;2022-08-30T08:21:50;95415.38;;;22.33;49.52
47636;BME280;33364;50.766;15.338;2022-08-30T08:24:21;95416.44;;;22.53;46.71
47636;BME280;33364;50.766;15.338;2022-08-30T08:26:47;95414.31;;;22.63;46.79
47636;BME280;33364;50.766;15.338;2022-08-30T08:29:13;95420.03;;;22.67;47.20
47636;BME280;33364;50.766;15.338;2022-08-30T08:31:38;95423.97;;;22.20;47.90
47636;BME280;33364;50.766;15.338;2022-08-30T08:34:05;95416.59;;;22.15;49.30
47636;BME280;33364;50.766;15.338;2022-08-30T08:36:31;95414.75;;;22.31;46.83
47636;BME280;33364;50.766;15.338;2022-08-30T08:38:58;95419.66;;;22.34;46.21
47636;BME280;33364;50.766;15.338;2022-08-30T08:41:51;95420.41;;;22.64;47.83
47636;BME280;33364;50.766;15.338;2022-08-30T08:47:23;95419.91;;;23.11;45.67
47636;BME280;33364;50.766;15.338;2022-08-30T08:49:53;95417.81;;;23.28;46.26
47636;BME280;33364;50.766;15.338;2022-08-30T08:52:45;95431.59;;;23.23;45.99
47636;BME280;33364;50.766;15.338;2022-08-30T08:55:30;95430.44;;;23.05;43.00
47636;BME280;33364;50.766;15.338;2022-08-30T08:57:57;95424.72;;;22.86;45.04
47636;BME280;33364;50.766;15.338;2022-08-30T09:00:22;95415.91;;;22.43;43.91
47636;BME280;33364;50.766;15.338;2022-08-30T09:03:01;95421.31;;;22.20;44.47
47636;BME280;33364;50.766;15.338;2022-08-30T09:05:34;95421.03;;;21.85;47.16
47636;BME280;33364;50.766;15.338;2022-08-30T09:08:05;95412.72;;;21.44;48.97
47636;BME280;33364;50.766;15.338;2022-08-30T09:10:32;95416.72;;;20.94;51.44
47636;BME280;33364;50.766;15.338;2022-08-30T09:12:58;95419.63;;;20.45;53.52
47636;BME280;33364;50.766;15.338;2022-08-30T09:15:30;95419.00;;;20.35;54.69
47636;BME280;33364;50.766;15.338;2022-08-30T09:18:05;95419.13;;;20.10;54.25
47636;BME280;33364;50.766;15.338;2022-08-30T09:20:37;95411.94;;;19.88;55.14
47636;BME280;33364;50.766;15.338;2022-08-30T09:25:56;95416.13;;;19.66;58.43
47636;BME280;33364;50.766;15.338;2022-08-30T09:28:42;95417.25;;;19.72;59.17
47636;BME280;33364;50.766;15.338;2022-08-30T09:36:32;95407.38;;;21.82;54.70
47636;BME280;33364;50.766;15.338;2022-08-30T09:39:00;95405.88;;;22.53;53.52
47636;BME280;33364;50.766;15.338;2022-08-30T09:41:35;95406.00;;;23.24;46.93
47636;BME280;33364;50.766;15.338;2022-08-30T09:44:18;95395.47;;;23.52;45.04
47636;BME280;33364;50.766;15.338;2022-08-30T09:46:48;95391.25;;;23.86;43.67
47636;BME280;33364;50.766;15.338;2022-08-30T09:49:38;95380.59;;;23.72;42.87
47636;BME280;33364;50.766;15.338;2022-08-30T09:55:08;95384.94;;;24.35;42.10
47636;BME280;33364;50.766;15.338;2022-08-30T10:00:27;95393.44;;;23.54;43.19
47636;BME280;33364;50.766;15.338;2022-08-30T10:03:18;95382.72;;;23.62;43.73
47636;BME280;33364;50.766;15.338;2022-08-30T10:05:56;95382.13;;;23.60;43.55
47636;BME280;33364;50.766;15.338;2022-08-30T10:11:00;95388.78;;;22.49;44.77
47636;BME280;33364;50.766;15.338;2022-08-30T10:16:41;95383.59;;;21.90;46.55
47636;BME280;33364;50.766;15.338;2022-08-30T10:19:23;95378.59;;;21.65;46.79
47636;BME280;33364;50.766;15.338;2022-08-30T10:22:08;95374.13;;;21.51;46.87
47636;BME280;33364;50.766;15.338;2022-08-30T10:24:47;95372.50;;;22.24;46.98
47636;BME280;33364;50.766;15.338;2022-08-30T10:27:33;95375.00;;;23.05;44.24
47636;BME280;33364;50.766;15.338;2022-08-30T10:30:05;95370.81;;;23.17;44.64
47636;BME280;33364;50.766;15.338;2022-08-30T10:32:52;95374.63;;;22.71;46.33
47636;BME280;33364;50.766;15.338;2022-08-30T10:35:26;95385.22;;;22.93;46.32
47636;BME280;33364;50.766;15.338;2022-08-30T10:38:04;95378.59;;;22.61;45.27
47636;BME280;33364;50.766;15.338;2022-08-30T10:40:35;95368.69;;;22.84;47.34
47636;BME280;33364;50.766;15.338;2022-08-30T10:43:33;95369.72;;;23.61;45.64
47636;BME280;33364;50.766;15.338;2022-08-30T10:46:07;95366.44;;;23.87;43.69
47636;BME280;33364;50.766;15.338;2022-08-30T10:48:37;95358.16;;;24.38;42.08
47636;BME280;33364;50.766;15.338;2022-08-30T10:51:09;95359.69;;;25.00;42.98
47636;BME280;33364;50.766;15.338;2022-08-30T10:53:55;95361.06;;;24.69;42.19
47636;BME280;33364;50.766;15.338;2022-08-30T10:56:23;95375.97;;;24.22;44.73
47636;BME280;33364;50.766;15.338;2022-08-30T10:58:51;95369.09;;;23.31;44.79
47636;BME280;33364;50.766;15.338;2022-08-30T11:07:25;95373.13;;;21.82;49.15
47636;BME280;33364;50.766;15.338;2022-08-30T11:12:37;95376.06;;;21.19;51.53
47636;BME280;33364;50.766;15.338;2022-08-30T11:15:17;95378.00;;;20.80;52.15
47636;BME280;33364;50.766;15.338;2022-08-30T11:20:40;95383.03;;;20.89;53.86
47636;BME280;33364;50.766;15.338;2022-08-30T11:23:30;95385.44;;;20.99;53.25
47636;BME280;33364;50.766;15.338;2022-08-30T11:25:59;95389.59;;;20.93;53.58
47636;BME280;33364;50.766;15.338;2022-08-30T11:41:40;95373.78;;;20.71;53.15
47636;BME280;33364;50.766;15.338;2022-08-30T11:44:34;95375.97;;;20.90;54.15
47636;BME280;33364;50.766;15.338;2022-08-30T11:47:01;95363.28;;;20.93;54.63
47636;BME280;33364;50.766;15.338;2022-08-30T11:50:03;95373.81;;;20.93;55.05
47636;BME280;33364;50.766;15.338;2022-08-30T11:52:49;95373.91;;;21.00;54.45
47636;BME280;33364;50.766;15.338;2022-08-30T11:55:33;95371.38;;;21.07;54.88
47636;BME280;33364;50.766;15.338;2022-08-30T11:58:15;95373.44;;;20.97;54.27
47636;BME280;33364;50.766;15.338;2022-08-30T12:00:45;95376.53;;;20.77;52.66
47636;BME280;33364;50.766;15.338;2022-08-30T12:05:56;95380.69;;;20.40;52.12
47636;BME280;33364;50.766;15.338;2022-08-30T12:13:59;95381.22;;;20.36;54.10
47636;BME280;33364;50.766;15.338;2022-08-30T12:16:42;95369.06;;;20.35;53.53
47636;BME280;33364;50.766;15.338;2022-08-30T12:19:30;95382.84;;;20.37;51.49
47636;BME280;33364;50.766;15.338;2022-08-30T12:21:58;95373.78;;;20.48;52.94
47636;BME280;33364;50.766;15.338;2022-08-30T12:27:22;95365.00;;;20.78;53.69
47636;BME280;33364;50.766;15.338;2022-08-30T12:29:53;95361.41;;;20.79;54.12
47636;BME280;33364;50.766;15.338;2022-08-30T12:32:20;95360.59;;;20.79;53.90
47636;BME280;33364;50.766;15.338;2022-08-30T12:34:52;95358.69;;;20.87;52.34
47636;BME280;33364;50.766;15.338;2022-08-30T12:37:24;95361.75;;;20.76;52.81
47636;BME280;33364;50.766;15.338;2022-08-30T12:40:10;95356.00;;;20.73;52.08
47636;BME280;33364;50.766;15.338;2022-08-30T12:42:39;95358.88;;;20.86;54.27
47636;BME280;33364;50.766;15.338;2022-08-30T12:45:12;95347.72;;;20.84;51.57
47636;BME280;33364;50.766;15.338;2022-08-30T12:47:44;95355.91;;;20.89;52.27
47636;BME280;33364;50.766;15.338;2022-08-30T12:50:14;95357.25;;;20.85;51.92
47636;BME280;33364;50.766;15.338;2022-08-30T12:52:43;95354.63;;;20.85;51.44
47636;BME280;33364;50.766;15.338;2022-08-30T12:55:22;95356.00;;;20.73;52.72
47636;BME280;33364;50.766;15.338;2022-08-30T13:00:35;95355.94;;;20.58;52.71
47636;BME280;33364;50.766;15.338;2022-08-30T13:05:59;95353.16;;;20.59;53.08
47636;BME280;33364;50.766;15.338;2022-08-30T13:08:52;95351.41;;;20.52;53.91
47636;BME280;33364;50.766;15.338;2022-08-30T13:13:51;95348.94;;;20.50;53.92
47636;BME280;33364;50.766;15.338;2022-08-30T13:21:52;95342.69;;;20.51;52.94
47636;BME280;33364;50.766;15.338;2022-08-30T13:24:18;95340.59;;;20.69;53.73
47636;BME280;33364;50.766;15.338;2022-08-30T13:26:44;95344.44;;;20.82;52.91
47636;BME280;33364;50.766;15.338;2022-08-30T13:29:15;95346.44;;;20.80;51.24
47636;BME280;33364;50.766;15.338;2022-08-30T13:31:42;95343.53;;;20.75;51.10
47636;BME280;33364;50.766;15.338;2022-08-30T13:34:08;95336.84;;;20.87;51.32
47636;BME280;33364;50.766;15.338;2022-08-30T13:36:35;95341.81;;;20.82;51.28
47636;BME280;33364;50.766;15.338;2022-08-30T13:39:03;95334.00;;;21.11;51.06
47636;BME280;33364;50.766;15.338;2022-08-30T13:41:29;95328.06;;;21.47;50.99
47636;BME280;33364;50.766;15.338;2022-08-30T13:43:55;95328.47;;;21.44;50.77
47636;BME280;33364;50.766;15.338;2022-08-30T13:46:22;95330.44;;;21.42;51.65
47636;BME280;33364;50.766;15.338;2022-08-30T13:48:52;95329.44;;;21.58;50.51
47636;BME280;33364;50.766;15.338;2022-08-30T13:51:20;95316.66;;;21.69;50.83
47636;BME280;33364;50.766;15.338;2022-08-30T13:53:45;95325.72;;;21.67;50.94
47636;BME280;33364;50.766;15.338;2022-08-30T13:56:11;95328.88;;;21.92;52.00
47636;BME280;33364;50.766;15.338;2022-08-30T13:58:37;95314.00;;;21.84;50.38
47636;BME280;33364;50.766;15.338;2022-08-30T14:01:02;95325.09;;;21.50;50.97
47636;BME280;33364;50.766;15.338;2022-08-30T14:03:28;95321.41;;;21.21;50.69
47636;BME280;33364;50.766;15.338;2022-08-30T14:05:53;95315.91;;;21.08;52.12
47636;BME280;33364;50.766;15.338;2022-08-30T14:08:23;95323.53;;;21.03;51.46
47636;BME280;33364;50.766;15.338;2022-08-30T14:10:52;95323.72;;;21.02;51.95
47636;BME280;33364;50.766;15.338;2022-08-30T14:13:17;95321.28;;;21.00;50.69